sensor_id;sensor_type;location;lat;lon;timestamp;pressure;altitude;pressure_sealevel;temperature;humidity
62248;BME280;48237;50.140;8.486;2023-04-08T00:00:10;99975.06;;;9.01;91.89
62248;BME280;48237;50.140;8.486;2023-04-08T00:02:37;99974.95;;;9.48;90.66
62248;BME280;48237;50.140;8.486;2023-04-08T00:05:04;99974.32;;;9.24;90.29
62248;BME280;48237;50.140;8.486;2023-04-08T00:07:32;99975.61;;;8.99;91.65
62248;BME280;48237;50.140;8.486;2023-04-08T00:09:59;99975.12;;;8.82;93.28
62248;BME280;48237;50.140;8.486;2023-04-08T00:12:26;99971.69;;;8.89;92.19
62248;BME280;48237;50.140;8.486;2023-04-08T00:14:53;99973.58;;;8.84;94.35
62248;BME280;48237;50.140;8.486;2023-04-08T00:17:20;99973.90;;;8.60;95.42
62248;BME280;48237;50.140;8.486;2023-04-08T00:19:47;99976.07;;;8.65;97.00
62248;BME280;48237;50.140;8.486;2023-04-08T00:22:14;99976.29;;;8.85;94.98
62248;BME280;48237;50.140;8.486;2023-04-08T00:24:41;99975.64;;;7.89;100.00
62248;BME280;48237;50.140;8.486;2023-04-08T00:27:08;99981.06;;;8.01;96.55
62248;BME280;48237;50.140;8.486;2023-04-08T00:29:35;99978.55;;;8.19;94.57
62248;BME280;48237;50.140;8.486;2023-04-08T00:32:02;99976.77;;;8.75;95.10
62248;BME280;48237;50.140;8.486;2023-04-08T00:34:29;99977.90;;;8.21;96.06
62248;BME280;48237;50.140;8.486;2023-04-08T00:36:57;99980.91;;;8.50;95.54
62248;BME280;48237;50.140;8.486;2023-04-08T00:39:24;99980.37;;;8.00;97.64
62248;BME280;48237;50.140;8.486;2023-04-08T00:41:51;99979.82;;;8.64;93.33
62248;BME280;48237;50.140;8.486;2023-04-08T00:44:18;99979.46;;;8.44;96.28
62248;BME280;48237;50.140;8.486;2023-04-08T00:46:45;99982.22;;;8.66;97.35
62248;BME280;48237;50.140;8.486;2023-04-08T00:49:12;99981.74;;;8.63;95.03
62248;BME280;48237;50.140;8.486;2023-04-08T00:51:39;99983.51;;;7.88;96.17
62248;BME280;48237;50.140;8.486;2023-04-08T00:54:06;99986.59;;;8.07;98.76
62248;BME280;48237;50.140;8.486;2023-04-08T00:56:33;99980.56;;;8.49;95.14
62248;BME280;48237;50.140;8.486;2023-04-08T00:59:02;99985.22;;;7.40;97.54
62248;BME280;48237;50.140;8.486;2023-04-08T01:01:38;99978.92;;;8.04;94.97
62248;BME280;48237;50.140;8.486;2023-04-08T01:04:16;99987.21;;;8.10;95.17
62248;BME280;48237;50.140;8.486;2023-04-08T01:06:50;99987.08;;;8.40;94.30
62248;BME280;48237;50.140;8.486;2023-04-08T01:09:27;99996.22;;;6.51;100.00
62248;BME280;48237;50.140;8.486;2023-04-08T01:11:55;99986.28;;;8.17;95.17
62248;BME280;48237;50.140;8.486;2023-04-08T01:14:25;99989.28;;;8.45;95.45
62248;BME280;48237;50.140;8.486;2023-04-08T01:16:56;99986.31;;;7.88;98.08
62248;BME280;48237;50.140;8.486;2023-04-08T01:19:28;99983.82;;;7.97;99.01
62248;BME280;48237;50.140;8.486;2023-04-08T01:22:02;99986.17;;;7.97;95.88
62248;BME280;48237;50.140;8.486;2023-04-08T01:24:35;99983.99;;;8.62;93.98
62248;BME280;48237;50.140;8.486;2023-04-08T01:27:06;99984.64;;;8.74;95.30
62248;BME280;48237;50.140;8.486;2023-04-08T01:29:34;99986.55;;;8.04;95.85
62248;BME280;48237;50.140;8.486;2023-04-08T01:32:02;99991.00;;;7.99;100.00
62248;BME280;48237;50.140;8.486;2023-04-08T01:34:32;99995.65;;;6.77;100.00
62248;BME280;48237;50.140;8.486;2023-04-08T01:37:01;99988.17;;;8.19;98.18
62248;BME280;48237;50.140;8.486;2023-04-08T01:39:30;99988.67;;;8.20;98.27
62248;BME280;48237;50.140;8.486;2023-04-08T01:41:58;99989.31;;;7.75;100.00
62248;BME280;48237;50.140;8.486;2023-04-08T01:44:25;99987.48;;;8.45;99.35
62248;BME280;48237;50.140;8.486;2023-04-08T01:46:54;99985.84;;;8.45;97.86
62248;BME280;48237;50.140;8.486;2023-04-08T01:49:23;99985.61;;;8.23;97.78
62248;BME280;48237;50.140;8.486;2023-04-08T01:51:51;99984.54;;;8.35;96.40
62248;BME280;48237;50.140;8.486;2023-04-08T01:54:19;99985.30;;;7.78;97.21
62248;BME280;48237;50.140;8.486;2023-04-08T01:56:46;99982.40;;;7.94;96.47
62248;BME280;48237;50.140;8.486;2023-04-08T01:59:16;99981.81;;;7.93;96.66
62248;BME280;48237;50.140;8.486;2023-04-08T02:01:46;99982.59;;;8.39;96.02
62248;BME280;48237;50.140;8.486;2023-04-08T02:04:14;99983.22;;;8.17;95.42
62248;BME280;48237;50.140;8.486;2023-04-08T02:06:41;99984.20;;;8.47;93.30
62248;BME280;48237;50.140;8.486;2023-04-08T02:09:09;99985.25;;;7.71;96.24
62248;BME280;48237;50.140;8.486;2023-04-08T02:11:37;99990.87;;;7.98;94.94
62248;BME280;48237;50.140;8.486;2023-04-08T02:14:03;99995.42;;;7.58;97.06
62248;BME280;48237;50.140;8.486;2023-04-08T02:16:38;99995.95;;;7.51;98.57
62248;BME280;48237;50.140;8.486;2023-04-08T02:19:09;99993.82;;;8.02;94.13
62248;BME280;48237;50.140;8.486;2023-04-08T02:21:43;99992.61;;;7.93;93.75
62248;BME280;48237;50.140;8.486;2023-04-08T02:24:13;99991.10;;;8.29;93.74
62248;BME280;48237;50.140;8.486;2023-04-08T02:26:42;99992.19;;;8.13;91.85
62248;BME280;48237;50.140;8.486;2023-04-08T02:29:12;99993.97;;;8.06;89.28
62248;BME280;48237;50.140;8.486;2023-04-08T02:31:41;99999.04;;;7.94;89.15
62248;BME280;48237;50.140;8.486;2023-04-08T02:34:10;100008.49;;;6.90;98.23
62248;BME280;48237;50.140;8.486;2023-04-08T02:36:37;100008.45;;;6.79;100.00
62248;BME280;48237;50.140;8.486;2023-04-08T02:39:05;100010.05;;;7.21;98.99
62248;BME280;48237;50.140;8.486;2023-04-08T02:41:32;100012.14;;;7.33;98.23
62248;BME280;48237;50.140;8.486;2023-04-08T02:43:59;100010.68;;;7.40;97.76
62248;BME280;48237;50.140;8.486;2023-04-08T02:46:26;100014.86;;;5.37;100.00
62248;BME280;48237;50.140;8.486;2023-04-08T02:48:52;100017.50;;;5.42;100.00
62248;BME280;48237;50.140;8.486;2023-04-08T02:51:19;100018.35;;;5.66;100.00
62248;BME280;48237;50.140;8.486;2023-04-08T02:53:47;100016.05;;;5.53;100.00
62248;BME280;48237;50.140;8.486;2023-04-08T02:56:14;100016.11;;;5.40;100.00
62248;BME280;48237;50.140;8.486;2023-04-08T02:58:41;100016.24;;;6.50;100.00
62248;BME280;48237;50.140;8.486;2023-04-08T03:01:08;100018.08;;;7.03;96.66
62248;BME280;48237;50.140;8.486;2023-04-08T03:03:35;100019.81;;;6.49;94.66
62248;BME280;48237;50.140;8.486;2023-04-08T03:06:03;100018.95;;;7.12;90.55
62248;BME280;48237;50.140;8.486;2023-04-08T03:08:30;100021.78;;;6.59;96.23
62248;BME280;48237;50.140;8.486;2023-04-08T03:10:57;100024.21;;;6.96;96.30
62248;BME280;48237;50.140;8.486;2023-04-08T03:13:24;100024.97;;;6.42;94.21
62248;BME280;48237;50.140;8.486;2023-04-08T03:15:51;100022.35;;;6.14;100.00
62248;BME280;48237;50.140;8.486;2023-04-08T03:18:18;100020.06;;;6.34;93.17
62248;BME280;48237;50.140;8.486;2023-04-08T03:20:45;100020.67;;;5.87;92.25
62248;BME280;48237;50.140;8.486;2023-04-08T03:23:12;100018.28;;;6.27;91.32
62248;BME280;48237;50.140;8.486;2023-04-08T03:25:39;100019.26;;;6.39;91.27
62248;BME280;48237;50.140;8.486;2023-04-08T03:28:06;100025.81;;;5.03;96.07
62248;BME280;48237;50.140;8.486;2023-04-08T03:30:33;100025.49;;;5.64;97.57
62248;BME280;48237;50.140;8.486;2023-04-08T03:33:00;100027.17;;;6.42;92.40
62248;BME280;48237;50.140;8.486;2023-04-08T03:35:27;100029.05;;;6.61;92.85
62248;BME280;48237;50.140;8.486;2023-04-08T03:37:54;100035.36;;;5.93;92.73
62248;BME280;48237;50.140;8.486;2023-04-08T03:40:21;100033.01;;;5.73;92.39
62248;BME280;48237;50.140;8.486;2023-04-08T03:42:49;100035.61;;;5.96;94.57
62248;BME280;48237;50.140;8.486;2023-04-08T03:45:16;100032.99;;;6.13;91.80
62248;BME280;48237;50.140;8.486;2023-04-08T03:47:43;100033.32;;;6.59;91.11
62248;BME280;48237;50.140;8.486;2023-04-08T03:50:11;100038.25;;;6.05;93.01
62248;BME280;48237;50.140;8.486;2023-04-08T03:52:38;100041.35;;;6.00;93.35
62248;BME280;48237;50.140;8.486;2023-04-08T03:55:05;100040.96;;;6.24;89.09
62248;BME280;48237;50.140;8.486;2023-04-08T03:57:33;100040.24;;;5.82;92.54
62248;BME280;48237;50.140;8.486;2023-04-08T04:00:01;100038.89;;;6.24;92.34
62248;BME280;48237;50.140;8.486;2023-04-08T04:02:28;100039.25;;;5.93;90.61
62248;BME280;48237;50.140;8.486;2023-04-08T04:04:55;100039.25;;;5.92;91.78
62248;BME280;48237;50.140;8.486;2023-04-08T04:07:21;100042.46;;;6.48;90.37
62248;BME280;48237;50.140;8.486;2023-04-08T04:09:48;100042.36;;;5.91;86.45
62248;BME280;48237;50.140;8.486;2023-04-08T04:12:15;100043.93;;;5.84;88.93
62248;BME280;48237;50.140;8.486;2023-04-08T04:14:42;100042.48;;;6.05;88.75
62248;BME280;48237;50.140;8.486;2023-04-08T04:17:09;100043.48;;;5.95;87.05
62248;BME280;48237;50.140;8.486;2023-04-08T04:19:36;100048.15;;;5.78;85.45
62248;BME280;48237;50.140;8.486;2023-04-08T04:22:03;100050.04;;;5.79;87.86
62248;BME280;48237;50.140;8.486;2023-04-08T04:24:31;100053.86;;;5.55;89.40
62248;BME280;48237;50.140;8.486;2023-04-08T04:26:57;100050.84;;;5.82;86.00
62248;BME280;48237;50.140;8.486;2023-04-08T04:29:25;100057.19;;;5.33;89.05
62248;BME280;48237;50.140;8.486;2023-04-08T04:31:52;100059.18;;;5.07;92.42
62248;BME280;48237;50.140;8.486;2023-04-08T04:34:19;100058.04;;;5.24;87.30
62248;BME280;48237;50.140;8.486;2023-04-08T04:36:46;100059.42;;;5.17;88.80
62248;BME280;48237;50.140;8.486;2023-04-08T04:39:14;100060.41;;;5.01;86.59
62248;BME280;48237;50.140;8.486;2023-04-08T04:41:41;100060.78;;;5.64;84.91
62248;BME280;48237;50.140;8.486;2023-04-08T04:44:07;100060.02;;;4.85;93.44
62248;BME280;48237;50.140;8.486;2023-04-08T04:46:35;100059.38;;;5.25;91.62
62248;BME280;48237;50.140;8.486;2023-04-08T04:49:02;100060.19;;;4.96;92.60
62248;BME280;48237;50.140;8.486;2023-04-08T04:51:30;100056.02;;;4.87;88.96
62248;BME280;48237;50.140;8.486;2023-04-08T04:53:57;100054.80;;;5.03;87.31
62248;BME280;48237;50.140;8.486;2023-04-08T04:56:24;100061.79;;;4.62;93.89
62248;BME280;48237;50.140;8.486;2023-04-08T05:01:08;100066.90;;;5.30;89.92
62248;BME280;48237;50.140;8.486;2023-04-08T05:03:35;100067.17;;;4.77;91.46
62248;BME280;48237;50.140;8.486;2023-04-08T05:06:02;100070.25;;;5.13;92.75
62248;BME280;48237;50.140;8.486;2023-04-08T05:08:29;100067.39;;;4.20;96.54
62248;BME280;48237;50.140;8.486;2023-04-08T05:10:56;100067.16;;;4.76;92.17
62248;BME280;48237;50.140;8.486;2023-04-08T05:13:22;100067.98;;;4.57;93.94
62248;BME280;48237;50.140;8.486;2023-04-08T05:15:49;100068.69;;;5.02;91.52
62248;BME280;48237;50.140;8.486;2023-04-08T05:18:16;100073.21;;;4.38;94.52
62248;BME280;48237;50.140;8.486;2023-04-08T05:20:44;100077.35;;;5.03;92.17
62248;BME280;48237;50.140;8.486;2023-04-08T05:23:11;100080.79;;;5.18;93.10
62248;BME280;48237;50.140;8.486;2023-04-08T05:25:38;100081.17;;;5.20;91.25
62248;BME280;48237;50.140;8.486;2023-04-08T05:28:05;100081.72;;;4.81;94.72
62248;BME280;48237;50.140;8.486;2023-04-08T05:30:32;100080.39;;;4.59;98.93
62248;BME280;48237;50.140;8.486;2023-04-08T05:33:00;100081.47;;;4.43;100.00
62248;BME280;48237;50.140;8.486;2023-04-08T05:35:27;100081.92;;;5.02;96.23
62248;BME280;48237;50.140;8.486;2023-04-08T05:37:54;100079.59;;;4.78;98.17
62248;BME280;48237;50.140;8.486;2023-04-08T05:40:21;100081.59;;;4.79;98.69
62248;BME280;48237;50.140;8.486;2023-04-08T05:42:49;100082.39;;;5.15;95.90
62248;BME280;48237;50.140;8.486;2023-04-08T05:45:16;100088.48;;;4.83;96.24
62248;BME280;48237;50.140;8.486;2023-04-08T05:47:43;100088.97;;;5.26;95.23
62248;BME280;48237;50.140;8.486;2023-04-08T05:50:11;100091.61;;;5.94;88.57
62248;BME280;48237;50.140;8.486;2023-04-08T05:52:41;100109.40;;;3.44;96.33
62248;BME280;48237;50.140;8.486;2023-04-08T05:55:09;100112.14;;;1.88;100.00
62248;BME280;48237;50.140;8.486;2023-04-08T05:57:35;100117.59;;;2.56;100.00
62248;BME280;48237;50.140;8.486;2023-04-08T06:00:03;100111.91;;;4.41;100.00
62248;BME280;48237;50.140;8.486;2023-04-08T06:02:30;100115.47;;;5.31;97.56
62248;BME280;48237;50.140;8.486;2023-04-08T06:04:57;100117.78;;;5.28;95.14
62248;BME280;48237;50.140;8.486;2023-04-08T06:07:24;100118.88;;;5.33;97.16
62248;BME280;48237;50.140;8.486;2023-04-08T06:09:51;100117.88;;;6.01;90.59
62248;BME280;48237;50.140;8.486;2023-04-08T06:12:18;100120.17;;;6.56;88.95
62248;BME280;48237;50.140;8.486;2023-04-08T06:14:45;100118.68;;;5.80;87.48
62248;BME280;48237;50.140;8.486;2023-04-08T06:17:12;100120.30;;;6.26;85.14
62248;BME280;48237;50.140;8.486;2023-04-08T06:19:40;100131.06;;;6.04;87.61
62248;BME280;48237;50.140;8.486;2023-04-08T06:22:07;100136.12;;;5.31;89.03
62248;BME280;48237;50.140;8.486;2023-04-08T06:24:34;100135.87;;;5.99;88.49
62248;BME280;48237;50.140;8.486;2023-04-08T06:27:02;100134.60;;;6.34;88.83
62248;BME280;48237;50.140;8.486;2023-04-08T06:29:28;100136.19;;;6.20;92.47
62248;BME280;48237;50.140;8.486;2023-04-08T06:31:55;100133.32;;;6.12;93.38
62248;BME280;48237;50.140;8.486;2023-04-08T06:34:23;100137.67;;;6.50;92.60
62248;BME280;48237;50.140;8.486;2023-04-08T06:36:50;100141.59;;;7.58;89.33
62248;BME280;48237;50.140;8.486;2023-04-08T06:39:17;100144.41;;;7.69;87.86
62248;BME280;48237;50.140;8.486;2023-04-08T06:41:44;100147.20;;;7.15;92.08
62248;BME280;48237;50.140;8.486;2023-04-08T06:44:11;100150.96;;;7.32;87.90
62248;BME280;48237;50.140;8.486;2023-04-08T06:46:39;100150.97;;;7.56;87.34
62248;BME280;48237;50.140;8.486;2023-04-08T06:49:06;100151.43;;;7.25;88.79
62248;BME280;48237;50.140;8.486;2023-04-08T06:51:33;100150.40;;;8.02;86.46
62248;BME280;48237;50.140;8.486;2023-04-08T06:54:00;100153.44;;;7.84;86.48
62248;BME280;48237;50.140;8.486;2023-04-08T06:56:27;100159.56;;;7.09;85.80
62248;BME280;48237;50.140;8.486;2023-04-08T06:58:54;100160.64;;;8.01;85.30
62248;BME280;48237;50.140;8.486;2023-04-08T07:01:21;100164.42;;;7.53;92.57
62248;BME280;48237;50.140;8.486;2023-04-08T07:03:48;100163.23;;;8.02;92.23
62248;BME280;48237;50.140;8.486;2023-04-08T07:06:15;100165.49;;;8.50;89.98
62248;BME280;48237;50.140;8.486;2023-04-08T07:08:42;100157.82;;;8.66;83.10
62248;BME280;48237;50.140;8.486;2023-04-08T07:11:09;100168.62;;;8.38;88.77
62248;BME280;48237;50.140;8.486;2023-04-08T07:13:36;100167.27;;;8.54;87.42
62248;BME280;48237;50.140;8.486;2023-04-08T07:16:03;100164.73;;;8.67;85.43
62248;BME280;48237;50.140;8.486;2023-04-08T07:18:30;100168.36;;;9.46;81.73
62248;BME280;48237;50.140;8.486;2023-04-08T07:20:57;100169.13;;;8.98;85.42
62248;BME280;48237;50.140;8.486;2023-04-08T07:23:25;100170.77;;;8.74;86.60
62248;BME280;48237;50.140;8.486;2023-04-08T07:25:53;100166.08;;;9.80;83.68
62248;BME280;48237;50.140;8.486;2023-04-08T07:28:20;100169.63;;;9.47;84.24
62248;BME280;48237;50.140;8.486;2023-04-08T07:30:47;100166.07;;;9.65;84.30
62248;BME280;48237;50.140;8.486;2023-04-08T07:33:15;100166.37;;;9.76;83.77
62248;BME280;48237;50.140;8.486;2023-04-08T07:35:42;100169.70;;;10.23;84.72
62248;BME280;48237;50.140;8.486;2023-04-08T07:38:09;100168.64;;;10.90;81.94
62248;BME280;48237;50.140;8.486;2023-04-08T07:40:37;100173.13;;;10.06;84.23
62248;BME280;48237;50.140;8.486;2023-04-08T07:43:04;100173.53;;;10.02;84.39
62248;BME280;48237;50.140;8.486;2023-04-08T07:45:31;100171.85;;;10.28;83.99
62248;BME280;48237;50.140;8.486;2023-04-08T07:47:58;100172.76;;;10.36;80.49
62248;BME280;48237;50.140;8.486;2023-04-08T07:50:25;100178.84;;;10.55;81.12
62248;BME280;48237;50.140;8.486;2023-04-08T07:52:52;100176.58;;;10.58;79.33
62248;BME280;48237;50.140;8.486;2023-04-08T07:55:19;100178.44;;;10.08;80.03
62248;BME280;48237;50.140;8.486;2023-04-08T07:57:46;100190.78;;;7.44;96.60
62248;BME280;48237;50.140;8.486;2023-04-08T08:00:14;100192.74;;;7.12;100.00
62248;BME280;48237;50.140;8.486;2023-04-08T08:02:41;100192.29;;;7.09;95.89
62248;BME280;48237;50.140;8.486;2023-04-08T08:05:08;100201.27;;;5.72;100.00
62248;BME280;48237;50.140;8.486;2023-04-08T08:07:35;100197.47;;;6.28;100.00
62248;BME280;48237;50.140;8.486;2023-04-08T08:10:02;100199.74;;;6.90;94.90
62248;BME280;48237;50.140;8.486;2023-04-08T08:12:29;100209.59;;;5.17;100.00
62248;BME280;48237;50.140;8.486;2023-04-08T08:14:56;100215.70;;;5.94;100.00
62248;BME280;48237;50.140;8.486;2023-04-08T08:17:24;100219.72;;;5.46;100.00
62248;BME280;48237;50.140;8.486;2023-04-08T08:19:51;100222.45;;;6.05;100.00
62248;BME280;48237;50.140;8.486;2023-04-08T08:22:18;100215.72;;;7.84;90.36
62248;BME280;48237;50.140;8.486;2023-04-08T08:24:45;100217.69;;;8.75;87.61
62248;BME280;48237;50.140;8.486;2023-04-08T08:27:12;100224.60;;;7.52;86.53
62248;BME280;48237;50.140;8.486;2023-04-08T08:29:39;100235.67;;;5.88;100.00
62248;BME280;48237;50.140;8.486;2023-04-08T08:32:06;100235.67;;;7.75;96.72
62248;BME280;48237;50.140;8.486;2023-04-08T08:34:33;100231.73;;;7.34;95.75
62248;BME280;48237;50.140;8.486;2023-04-08T08:37:01;100234.97;;;7.07;91.94
62248;BME280;48237;50.140;8.486;2023-04-08T08:39:28;100237.38;;;8.02;93.97
62248;BME280;48237;50.140;8.486;2023-04-08T08:41:55;100239.65;;;8.83;86.10
62248;BME280;48237;50.140;8.486;2023-04-08T08:44:22;100232.76;;;10.28;81.55
62248;BME280;48237;50.140;8.486;2023-04-08T08:46:49;100243.29;;;8.40;80.29
62248;BME280;48237;50.140;8.486;2023-04-08T08:49:17;100234.51;;;9.69;77.11
62248;BME280;48237;50.140;8.486;2023-04-08T08:51:45;100233.45;;;10.14;78.49
62248;BME280;48237;50.140;8.486;2023-04-08T08:54:14;100234.34;;;10.37;74.63
62248;BME280;48237;50.140;8.486;2023-04-08T08:56:40;100239.41;;;10.83;77.68
62248;BME280;48237;50.140;8.486;2023-04-08T08:59:07;100243.79;;;9.89;78.38
62248;BME280;48237;50.140;8.486;2023-04-08T09:01:36;100246.36;;;9.65;81.44
62248;BME280;48237;50.140;8.486;2023-04-08T09:04:09;100250.42;;;10.37;77.42
62248;BME280;48237;50.140;8.486;2023-04-08T09:06:37;100252.84;;;9.34;84.15
62248;BME280;48237;50.140;8.486;2023-04-08T09:09:05;100255.71;;;10.17;78.94
62248;BME280;48237;50.140;8.486;2023-04-08T09:11:32;100256.85;;;9.97;85.59
62248;BME280;48237;50.140;8.486;2023-04-08T09:13:59;100255.55;;;9.91;87.95
62248;BME280;48237;50.140;8.486;2023-04-08T09:16:27;100265.31;;;8.23;93.63
62248;BME280;48237;50.140;8.486;2023-04-08T09:18:54;100258.39;;;10.27;80.83
62248;BME280;48237;50.140;8.486;2023-04-08T09:21:33;100262.01;;;9.87;88.48
62248;BME280;48237;50.140;8.486;2023-04-08T09:24:01;100268.38;;;8.91;89.39
62248;BME280;48237;50.140;8.486;2023-04-08T09:26:28;100272.64;;;7.78;97.74
62248;BME280;48237;50.140;8.486;2023-04-08T09:28:59;100273.28;;;5.74;100.00
62248;BME280;48237;50.140;8.486;2023-04-08T09:31:27;100273.29;;;6.23;100.00
62248;BME280;48237;50.140;8.486;2023-04-08T09:33:56;100275.40;;;5.46;100.00
62248;BME280;48237;50.140;8.486;2023-04-08T09:36:24;100268.92;;;6.64;100.00
62248;BME280;48237;50.140;8.486;2023-04-08T09:38:52;100270.57;;;6.29;100.00
62248;BME280;48237;50.140;8.486;2023-04-08T09:41:27;100268.16;;;8.24;100.00
62248;BME280;48237;50.140;8.486;2023-04-08T09:43:54;100270.38;;;9.24;92.43
62248;BME280;48237;50.140;8.486;2023-04-08T09:46:31;100273.11;;;8.90;89.98
62248;BME280;48237;50.140;8.486;2023-04-08T09:49:04;100273.49;;;8.57;86.96
62248;BME280;48237;50.140;8.486;2023-04-08T09:51:33;100271.80;;;8.30;87.84
62248;BME280;48237;50.140;8.486;2023-04-08T09:54:05;100268.26;;;10.66;85.56
62248;BME280;48237;50.140;8.486;2023-04-08T09:56:43;100268.25;;;9.76;81.64
62248;BME280;48237;50.140;8.486;2023-04-08T09:59:13;100273.55;;;9.35;82.81
62248;BME280;48237;50.140;8.486;2023-04-08T10:01:45;100281.28;;;7.63;88.69
62248;BME280;48237;50.140;8.486;2023-04-08T10:04:14;100269.97;;;9.48;82.30
62248;BME280;48237;50.140;8.486;2023-04-08T10:06:42;100272.52;;;10.19;78.75
62248;BME280;48237;50.140;8.486;2023-04-08T10:09:09;100278.21;;;8.78;87.38
62248;BME280;48237;50.140;8.486;2023-04-08T10:11:37;100273.10;;;7.80;85.15
62248;BME280;48237;50.140;8.486;2023-04-08T10:14:04;100264.65;;;9.95;79.01
62248;BME280;48237;50.140;8.486;2023-04-08T10:16:32;100267.63;;;8.67;84.69
62248;BME280;48237;50.140;8.486;2023-04-08T10:18:59;100266.52;;;10.36;77.35
62248;BME280;48237;50.140;8.486;2023-04-08T10:21:35;100267.09;;;9.58;81.17
62248;BME280;48237;50.140;8.486;2023-04-08T10:24:05;100270.93;;;7.21;83.39
62248;BME280;48237;50.140;8.486;2023-04-08T10:26:36;100267.47;;;6.65;81.90
62248;BME280;48237;50.140;8.486;2023-04-08T10:29:35;100270.99;;;6.19;87.19
62248;BME280;48237;50.140;8.486;2023-04-08T10:32:02;100268.98;;;6.09;88.83
62248;BME280;48237;50.140;8.486;2023-04-08T10:37:22;100270.45;;;6.61;82.50
62248;BME280;48237;50.140;8.486;2023-04-08T10:39:49;100264.11;;;6.72;83.75
62248;BME280;48237;50.140;8.486;2023-04-08T10:42:26;100261.05;;;7.16;81.02
62248;BME280;48237;50.140;8.486;2023-04-08T10:44:53;100266.09;;;6.31;86.01
62248;BME280;48237;50.140;8.486;2023-04-08T10:47:25;100268.04;;;5.43;98.97
62248;BME280;48237;50.140;8.486;2023-04-08T10:49:52;100260.19;;;6.59;88.46
62248;BME280;48237;50.140;8.486;2023-04-08T10:52:19;100253.13;;;7.12;84.78
62248;BME280;48237;50.140;8.486;2023-04-08T10:54:47;100259.24;;;7.25;87.41
62248;BME280;48237;50.140;8.486;2023-04-08T10:57:15;100257.96;;;6.80;89.62
62248;BME280;48237;50.140;8.486;2023-04-08T10:59:49;100258.11;;;7.91;83.02
62248;BME280;48237;50.140;8.486;2023-04-08T11:02:15;100256.37;;;6.88;83.03
62248;BME280;48237;50.140;8.486;2023-04-08T11:04:43;100259.87;;;6.32;90.04
62248;BME280;48237;50.140;8.486;2023-04-08T11:07:11;100252.12;;;7.43;83.35
62248;BME280;48237;50.140;8.486;2023-04-08T11:09:37;100251.69;;;9.08;76.51
62248;BME280;48237;50.140;8.486;2023-04-08T11:12:05;100248.84;;;9.10;73.38
62248;BME280;48237;50.140;8.486;2023-04-08T11:14:32;100253.19;;;9.22;74.22
62248;BME280;48237;50.140;8.486;2023-04-08T11:16:59;100246.62;;;10.45;74.04
62248;BME280;48237;50.140;8.486;2023-04-08T11:19:27;100244.77;;;10.76;71.63
62248;BME280;48237;50.140;8.486;2023-04-08T11:21:55;100255.17;;;8.43;79.16
62248;BME280;48237;50.140;8.486;2023-04-08T11:24:22;100260.13;;;7.72;85.18
62248;BME280;48237;50.140;8.486;2023-04-08T11:26:50;100250.47;;;8.13;80.49
62248;BME280;48237;50.140;8.486;2023-04-08T11:29:17;100251.37;;;8.33;83.61
62248;BME280;48237;50.140;8.486;2023-04-08T11:31:44;100249.22;;;7.14;88.16
62248;BME280;48237;50.140;8.486;2023-04-08T11:34:11;100249.07;;;6.89;93.73
62248;BME280;48237;50.140;8.486;2023-04-08T11:36:48;100250.78;;;8.48;84.94
62248;BME280;48237;50.140;8.486;2023-04-08T11:39:15;100253.10;;;8.62;84.51
62248;BME280;48237;50.140;8.486;2023-04-08T11:41:42;100251.24;;;8.05;86.14
62248;BME280;48237;50.140;8.486;2023-04-08T11:44:09;100248.89;;;9.54;78.10
62248;BME280;48237;50.140;8.486;2023-04-08T11:46:36;100249.90;;;8.77;79.72
62248;BME280;48237;50.140;8.486;2023-04-08T11:49:04;100248.42;;;8.12;86.35
62248;BME280;48237;50.140;8.486;2023-04-08T11:51:32;100246.06;;;7.82;84.93
62248;BME280;48237;50.140;8.486;2023-04-08T11:54:03;100248.94;;;8.67;80.26
62248;BME280;48237;50.140;8.486;2023-04-08T11:56:31;100244.59;;;8.62;77.92
62248;BME280;48237;50.140;8.486;2023-04-08T11:59:10;100241.10;;;9.24;81.91
62248;BME280;48237;50.140;8.486;2023-04-08T12:01:37;100247.04;;;8.59;80.51
62248;BME280;48237;50.140;8.486;2023-04-08T12:04:04;100247.04;;;7.54;87.77
62248;BME280;48237;50.140;8.486;2023-04-08T12:06:31;100247.47;;;6.61;91.46
62248;BME280;48237;50.140;8.486;2023-04-08T12:08:58;100245.85;;;7.34;89.99
62248;BME280;48237;50.140;8.486;2023-04-08T12:11:25;100247.60;;;6.68;94.11
62248;BME280;48237;50.140;8.486;2023-04-08T12:13:52;100248.93;;;6.42;97.47
62248;BME280;48237;50.140;8.486;2023-04-08T12:16:20;100244.20;;;7.64;92.99
62248;BME280;48237;50.140;8.486;2023-04-08T12:18:47;100248.64;;;6.64;100.00
62248;BME280;48237;50.140;8.486;2023-04-08T12:21:14;100248.01;;;6.13;100.00
62248;BME280;48237;50.140;8.486;2023-04-08T12:23:42;100247.08;;;6.77;100.00
62248;BME280;48237;50.140;8.486;2023-04-08T12:26:09;100253.14;;;7.63;93.50
62248;BME280;48237;50.140;8.486;2023-04-08T12:28:36;100249.58;;;7.64;92.28
62248;BME280;48237;50.140;8.486;2023-04-08T12:31:03;100250.69;;;7.83;87.57
62248;BME280;48237;50.140;8.486;2023-04-08T12:33:31;100242.18;;;8.59;82.12
62248;BME280;48237;50.140;8.486;2023-04-08T12:35:57;100246.47;;;7.97;85.02
62248;BME280;48237;50.140;8.486;2023-04-08T12:38:25;100242.03;;;8.42;82.29
62248;BME280;48237;50.140;8.486;2023-04-08T12:40:52;100232.55;;;8.75;80.68
62248;BME280;48237;50.140;8.486;2023-04-08T12:43:20;100239.11;;;8.39;84.20
62248;BME280;48237;50.140;8.486;2023-04-08T12:45:48;100237.31;;;8.83;84.17
62248;BME280;48237;50.140;8.486;2023-04-08T12:48:15;100240.04;;;7.74;85.49
62248;BME280;48237;50.140;8.486;2023-04-08T12:50:42;100237.08;;;7.42;89.77
62248;BME280;48237;50.140;8.486;2023-04-08T12:53:09;100240.22;;;8.33;92.57
62248;BME280;48237;50.140;8.486;2023-04-08T12:55:37;100237.06;;;7.80;91.00
62248;BME280;48237;50.140;8.486;2023-04-08T12:58:03;100236.92;;;8.32;87.86
62248;BME280;48237;50.140;8.486;2023-04-08T13:00:30;100235.17;;;7.61;93.90
62248;BME280;48237;50.140;8.486;2023-04-08T13:02:57;100227.84;;;9.18;82.94
62248;BME280;48237;50.140;8.486;2023-04-08T13:05:24;100228.64;;;8.78;82.08
62248;BME280;48237;50.140;8.486;2023-04-08T13:07:51;100229.77;;;7.87;89.02